sensor_id;sensor_type;location;lat;lon;timestamp;pressure;altitude;pressure_sealevel;temperature;humidity
71195;BME280;58908;51.426;7.714;2023-10-13T00:00:49;99453.44;;;16.27;100.00
71195;BME280;58908;51.426;7.714;2023-10-13T00:03:22;99448.00;;;16.29;100.00
71195;BME280;58908;51.426;7.714;2023-10-13T00:05:50;99456.84;;;16.29;100.00
71195;BME280;58908;51.426;7.714;2023-10-13T00:08:17;99439.03;;;16.30;100.00
71195;BME280;58908;51.426;7.714;2023-10-13T00:10:45;99441.31;;;16.34;100.00
71195;BME280;58908;51.426;7.714;2023-10-13T00:13:12;99443.72;;;16.37;100.00
71195;BME280;58908;51.426;7.714;2023-10-13T00:15:41;99448.94;;;16.39;100.00
71195;BME280;58908;51.426;7.714;2023-10-13T00:18:13;99441.66;;;16.41;100.00
71195;BME280;58908;51.426;7.714;2023-10-13T00:20:40;99442.50;;;16.41;100.00
71195;BME280;58908;51.426;7.714;2023-10-13T00:23:12;99448.53;;;16.43;100.00
71195;BME280;58908;51.426;7.714;2023-10-13T00:25:38;99444.19;;;16.42;100.00
71195;BME280;58908;51.426;7.714;2023-10-13T00:28:08;99442.91;;;16.37;100.00
71195;BME280;58908;51.426;7.714;2023-10-13T00:30:35;99437.44;;;16.38;100.00
71195;BME280;58908;51.426;7.714;2023-10-13T00:33:02;99432.00;;;16.40;100.00
71195;BME280;58908;51.426;7.714;2023-10-13T00:35:30;99438.41;;;16.37;100.00
71195;BME280;58908;51.426;7.714;2023-10-13T00:38:02;99438.56;;;16.36;100.00
71195;BME280;58908;51.426;7.714;2023-10-13T00:40:38;99431.63;;;16.33;100.00
71195;BME280;58908;51.426;7.714;2023-10-13T00:43:08;99426.31;;;16.33;100.00
71195;BME280;58908;51.426;7.714;2023-10-13T00:45:53;99418.22;;;16.35;100.00
71195;BME280;58908;51.426;7.714;2023-10-13T00:48:23;99423.28;;;16.38;100.00
71195;BME280;58908;51.426;7.714;2023-10-13T00:50:55;99425.97;;;16.38;100.00
71195;BME280;58908;51.426;7.714;2023-10-13T00:53:21;99418.69;;;16.40;100.00
71195;BME280;58908;51.426;7.714;2023-10-13T00:55:47;99407.56;;;16.35;100.00
71195;BME280;58908;51.426;7.714;2023-10-13T00:58:13;99410.63;;;16.30;100.00
71195;BME280;58908;51.426;7.714;2023-10-13T01:00:40;99402.63;;;16.30;100.00
71195;BME280;58908;51.426;7.714;2023-10-13T01:03:12;99409.75;;;16.30;100.00
71195;BME280;58908;51.426;7.714;2023-10-13T01:05:37;99404.59;;;16.28;100.00
71195;BME280;58908;51.426;7.714;2023-10-13T01:08:06;99406.97;;;16.31;100.00
71195;BME280;58908;51.426;7.714;2023-10-13T01:10:37;99408.34;;;16.26;100.00
71195;BME280;58908;51.426;7.714;2023-10-13T01:13:03;99404.38;;;16.20;100.00
71195;BME280;58908;51.426;7.714;2023-10-13T01:15:28;99400.34;;;16.26;100.00
71195;BME280;58908;51.426;7.714;2023-10-13T01:18:05;99407.75;;;16.22;100.00
71195;BME280;58908;51.426;7.714;2023-10-13T01:20:30;99396.00;;;16.25;100.00
71195;BME280;58908;51.426;7.714;2023-10-13T01:23:07;99393.06;;;16.28;100.00
71195;BME280;58908;51.426;7.714;2023-10-13T01:25:35;99393.31;;;16.36;100.00
71195;BME280;58908;51.426;7.714;2023-10-13T01:28:03;99392.16;;;16.38;100.00
71195;BME280;58908;51.426;7.714;2023-10-13T01:30:28;99391.34;;;16.38;100.00
71195;BME280;58908;51.426;7.714;2023-10-13T01:32:55;99381.41;;;16.40;100.00
71195;BME280;58908;51.426;7.714;2023-10-13T01:35:25;99389.75;;;16.35;100.00
71195;BME280;58908;51.426;7.714;2023-10-13T01:38:00;99377.41;;;16.34;100.00
71195;BME280;58908;51.426;7.714;2023-10-13T01:40:26;99387.25;;;16.34;100.00
71195;BME280;58908;51.426;7.714;2023-10-13T01:42:58;99377.34;;;16.36;100.00
71195;BME280;58908;51.426;7.714;2023-10-13T01:45:23;99373.53;;;16.38;100.00
71195;BME280;58908;51.426;7.714;2023-10-13T01:47:53;99364.09;;;16.34;100.00
71195;BME280;58908;51.426;7.714;2023-10-13T01:50:19;99355.63;;;16.40;100.00
71195;BME280;58908;51.426;7.714;2023-10-13T01:52:47;99361.66;;;16.42;100.00
71195;BME280;58908;51.426;7.714;2023-10-13T01:55:13;99355.94;;;16.47;100.00
71195;BME280;58908;51.426;7.714;2023-10-13T01:57:43;99354.41;;;16.54;100.00
71195;BME280;58908;51.426;7.714;2023-10-13T02:00:13;99349.25;;;16.52;100.00
71195;BME280;58908;51.426;7.714;2023-10-13T02:02:43;99344.63;;;16.54;100.00
71195;BME280;58908;51.426;7.714;2023-10-13T02:05:10;99349.38;;;16.51;100.00
71195;BME280;58908;51.426;7.714;2023-10-13T02:07:35;99351.31;;;16.49;100.00
71195;BME280;58908;51.426;7.714;2023-10-13T02:10:04;99353.13;;;16.48;100.00
71195;BME280;58908;51.426;7.714;2023-10-13T02:12:30;99352.88;;;16.51;100.00
71195;BME280;58908;51.426;7.714;2023-10-13T02:15:09;99344.03;;;16.51;100.00
71195;BME280;58908;51.426;7.714;2023-10-13T02:17:37;99342.66;;;16.56;100.00
71195;BME280;58908;51.426;7.714;2023-10-13T02:20:07;99349.94;;;16.54;100.00
71195;BME280;58908;51.426;7.714;2023-10-13T02:22:33;99338.59;;;16.52;100.00
71195;BME280;58908;51.426;7.714;2023-10-13T02:25:01;99331.00;;;16.48;100.00
71195;BME280;58908;51.426;7.714;2023-10-13T02:27:26;99337.44;;;16.45;100.00
71195;BME280;58908;51.426;7.714;2023-10-13T02:29:53;99327.63;;;16.46;100.00
71195;BME280;58908;51.426;7.714;2023-10-13T02:32:24;99324.66;;;16.39;100.00
71195;BME280;58908;51.426;7.714;2023-10-13T02:34:51;99327.19;;;16.41;100.00
71195;BME280;58908;51.426;7.714;2023-10-13T02:37:17;99314.97;;;16.38;100.00
71195;BME280;58908;51.426;7.714;2023-10-13T02:39:44;99306.28;;;16.36;100.00
71195;BME280;58908;51.426;7.714;2023-10-13T02:42:10;99299.00;;;16.38;100.00
71195;BME280;58908;51.426;7.714;2023-10-13T02:44:48;99296.66;;;16.45;100.00
71195;BME280;58908;51.426;7.714;2023-10-13T02:47:13;99300.03;;;16.47;100.00
71195;BME280;58908;51.426;7.714;2023-10-13T02:49:41;99291.34;;;16.45;100.00
71195;BME280;58908;51.426;7.714;2023-10-13T02:52:08;99285.84;;;16.46;100.00
71195;BME280;58908;51.426;7.714;2023-10-13T02:54:35;99284.47;;;16.52;100.00
71195;BME280;58908;51.426;7.714;2023-10-13T02:57:04;99284.78;;;16.58;100.00
71195;BME280;58908;51.426;7.714;2023-10-13T02:59:31;99280.31;;;16.59;100.00
71195;BME280;58908;51.426;7.714;2023-10-13T03:02:04;99279.91;;;16.63;100.00
71195;BME280;58908;51.426;7.714;2023-10-13T03:04:43;99278.06;;;16.64;100.00
71195;BME280;58908;51.426;7.714;2023-10-13T03:07:08;99275.00;;;16.68;100.00
71195;BME280;58908;51.426;7.714;2023-10-13T03:09:35;99268.84;;;16.68;100.00
71195;BME280;58908;51.426;7.714;2023-10-13T03:12:02;99267.97;;;16.67;100.00
71195;BME280;58908;51.426;7.714;2023-10-13T03:14:29;99268.97;;;16.66;100.00
71195;BME280;58908;51.426;7.714;2023-10-13T03:16:56;99272.91;;;16.72;100.00
71195;BME280;58908;51.426;7.714;2023-10-13T03:19:27;99263.09;;;16.72;100.00
71195;BME280;58908;51.426;7.714;2023-10-13T03:21:59;99258.31;;;16.66;100.00
71195;BME280;58908;51.426;7.714;2023-10-13T03:24:34;99259.00;;;16.68;100.00
71195;BME280;58908;51.426;7.714;2023-10-13T03:26:59;99244.00;;;16.67;100.00
71195;BME280;58908;51.426;7.714;2023-10-13T03:29:33;99243.88;;;16.69;100.00
71195;BME280;58908;51.426;7.714;2023-10-13T03:32:00;99245.69;;;16.68;100.00
71195;BME280;58908;51.426;7.714;2023-10-13T03:34:32;99242.19;;;16.68;100.00
71195;BME280;58908;51.426;7.714;2023-10-13T03:37:01;99249.22;;;16.69;100.00
71195;BME280;58908;51.426;7.714;2023-10-13T03:39:36;99234.75;;;16.62;100.00
71195;BME280;58908;51.426;7.714;2023-10-13T03:42:03;99225.63;;;16.55;100.00
71195;BME280;58908;51.426;7.714;2023-10-13T03:44:30;99230.41;;;16.51;100.00
71195;BME280;58908;51.426;7.714;2023-10-13T03:46:57;99215.53;;;16.49;100.00
71195;BME280;58908;51.426;7.714;2023-10-13T03:49:33;99218.47;;;16.46;100.00
71195;BME280;58908;51.426;7.714;2023-10-13T03:52:04;99209.22;;;16.40;100.00
71195;BME280;58908;51.426;7.714;2023-10-13T03:54:30;99208.63;;;16.37;100.00
71195;BME280;58908;51.426;7.714;2023-10-13T03:56:59;99188.53;;;16.33;100.00
71195;BME280;58908;51.426;7.714;2023-10-13T03:59:30;99196.53;;;16.33;100.00
71195;BME280;58908;51.426;7.714;2023-10-13T04:02:00;99179.72;;;16.32;100.00
71195;BME280;58908;51.426;7.714;2023-10-13T04:04:31;99181.81;;;16.29;100.00
71195;BME280;58908;51.426;7.714;2023-10-13T04:07:11;99165.16;;;16.27;100.00
71195;BME280;58908;51.426;7.714;2023-10-13T04:10:01;99155.63;;;16.24;100.00
71195;BME280;58908;51.426;7.714;2023-10-13T04:12:44;99147.63;;;16.24;100.00
71195;BME280;58908;51.426;7.714;2023-10-13T04:15:39;99151.44;;;16.31;100.00
71195;BME280;58908;51.426;7.714;2023-10-13T04:18:26;99141.63;;;16.32;100.00
71195;BME280;58908;51.426;7.714;2023-10-13T04:20:59;99131.94;;;16.31;100.00
71195;BME280;58908;51.426;7.714;2023-10-13T04:23:45;99124.66;;;16.33;100.00
71195;BME280;58908;51.426;7.714;2023-10-13T04:26:25;99108.19;;;16.39;100.00
71195;BME280;58908;51.426;7.714;2023-10-13T04:29:01;99104.13;;;16.44;100.00
71195;BME280;58908;51.426;7.714;2023-10-13T04:31:35;99113.09;;;16.43;100.00
71195;BME280;58908;51.426;7.714;2023-10-13T04:34:22;99107.91;;;16.42;100.00
71195;BME280;58908;51.426;7.714;2023-10-13T04:36:53;99099.50;;;16.46;100.00
71195;BME280;58908;51.426;7.714;2023-10-13T04:39:37;99089.53;;;16.48;100.00
71195;BME280;58908;51.426;7.714;2023-10-13T04:42:04;99091.22;;;16.49;100.00
71195;BME280;58908;51.426;7.714;2023-10-13T04:44:38;99085.34;;;16.55;100.00
71195;BME280;58908;51.426;7.714;2023-10-13T04:47:13;99080.59;;;16.59;100.00
71195;BME280;58908;51.426;7.714;2023-10-13T04:49:46;99075.94;;;16.61;100.00
71195;BME280;58908;51.426;7.714;2023-10-13T04:52:17;99086.47;;;16.62;100.00
71195;BME280;58908;51.426;7.714;2023-10-13T04:55:04;99082.25;;;16.60;100.00
71195;BME280;58908;51.426;7.714;2023-10-13T04:57:49;99074.84;;;16.63;100.00
71195;BME280;58908;51.426;7.714;2023-10-13T05:00:18;99070.06;;;16.67;100.00
71195;BME280;58908;51.426;7.714;2023-10-13T05:03:02;99071.47;;;16.71;100.00
71195;BME280;58908;51.426;7.714;2023-10-13T05:06:16;99068.66;;;16.72;100.00
71195;BME280;58908;51.426;7.714;2023-10-13T05:09:00;99061.78;;;16.70;100.00
71195;BME280;58908;51.426;7.714;2023-10-13T05:11:45;99071.16;;;16.74;100.00
71195;BME280;58908;51.426;7.714;2023-10-13T05:14:29;99071.03;;;16.75;100.00
71195;BME280;58908;51.426;7.714;2023-10-13T05:17:13;99068.63;;;16.82;100.00
71195;BME280;58908;51.426;7.714;2023-10-13T05:19:57;99065.28;;;16.80;100.00
71195;BME280;58908;51.426;7.714;2023-10-13T05:22:41;99069.75;;;16.79;100.00
71195;BME280;58908;51.426;7.714;2023-10-13T05:25:25;99069.63;;;16.81;100.00
71195;BME280;58908;51.426;7.714;2023-10-13T05:28:11;99058.66;;;16.84;100.00
71195;BME280;58908;51.426;7.714;2023-10-13T05:30:55;99059.53;;;16.84;100.00
71195;BME280;58908;51.426;7.714;2023-10-13T05:33:42;99063.00;;;16.85;100.00
71195;BME280;58908;51.426;7.714;2023-10-13T05:36:26;99058.66;;;16.84;100.00
71195;BME280;58908;51.426;7.714;2023-10-13T05:39:10;99065.84;;;16.83;100.00
71195;BME280;58908;51.426;7.714;2023-10-13T05:42:05;99068.50;;;16.83;100.00
71195;BME280;58908;51.426;7.714;2023-10-13T05:45:02;99062.72;;;16.88;100.00
71195;BME280;58908;51.426;7.714;2023-10-13T05:47:42;99053.03;;;16.87;100.00
71195;BME280;58908;51.426;7.714;2023-10-13T05:50:26;99044.06;;;16.88;100.00
71195;BME280;58908;51.426;7.714;2023-10-13T05:53:14;99057.38;;;16.88;100.00
71195;BME280;58908;51.426;7.714;2023-10-13T05:55:59;99056.28;;;16.90;100.00
71195;BME280;58908;51.426;7.714;2023-10-13T05:58:43;99056.13;;;16.92;100.00
71195;BME280;58908;51.426;7.714;2023-10-13T06:01:29;99052.06;;;16.88;100.00
71195;BME280;58908;51.426;7.714;2023-10-13T06:04:24;99063.00;;;16.85;100.00
71195;BME280;58908;51.426;7.714;2023-10-13T06:07:08;99050.00;;;16.82;100.00
71195;BME280;58908;51.426;7.714;2023-10-13T06:09:52;99053.91;;;16.87;100.00
71195;BME280;58908;51.426;7.714;2023-10-13T06:12:36;99056.69;;;16.86;100.00
71195;BME280;58908;51.426;7.714;2023-10-13T06:15:20;99067.53;;;16.84;100.00
71195;BME280;58908;51.426;7.714;2023-10-13T06:18:05;99070.19;;;16.84;100.00
71195;BME280;58908;51.426;7.714;2023-10-13T06:20:49;99075.94;;;16.80;100.00
71195;BME280;58908;51.426;7.714;2023-10-13T06:23:33;99066.97;;;16.81;100.00
71195;BME280;58908;51.426;7.714;2023-10-13T06:26:17;99065.13;;;16.81;100.00
71195;BME280;58908;51.426;7.714;2023-10-13T06:29:01;99068.63;;;16.82;100.00
71195;BME280;58908;51.426;7.714;2023-10-13T06:31:27;99066.25;;;16.79;100.00
71195;BME280;58908;51.426;7.714;2023-10-13T06:33:55;99075.94;;;16.80;100.00
71195;BME280;58908;51.426;7.714;2023-10-13T06:36:21;99072.72;;;16.76;100.00
71195;BME280;58908;51.426;7.714;2023-10-13T06:38:47;99075.38;;;16.76;100.00
71195;BME280;58908;51.426;7.714;2023-10-13T06:41:20;99089.50;;;16.77;100.00
71195;BME280;58908;51.426;7.714;2023-10-13T06:43:55;99076.50;;;16.74;100.00
71195;BME280;58908;51.426;7.714;2023-10-13T06:46:25;99068.50;;;16.74;100.00
71195;BME280;58908;51.426;7.714;2023-10-13T06:48:54;99052.50;;;16.74;100.00
71195;BME280;58908;51.426;7.714;2023-10-13T06:51:24;99047.88;;;16.76;100.00
71195;BME280;58908;51.426;7.714;2023-10-13T06:53:55;99030.09;;;16.76;100.00
71195;BME280;58908;51.426;7.714;2023-10-13T06:56:22;99020.81;;;16.80;100.00
71195;BME280;58908;51.426;7.714;2023-10-13T06:58:51;98995.03;;;16.81;100.00
71195;BME280;58908;51.426;7.714;2023-10-13T07:01:24;99002.16;;;16.80;100.00
71195;BME280;58908;51.426;7.714;2023-10-13T07:03:50;98987.59;;;16.84;100.00
71195;BME280;58908;51.426;7.714;2023-10-13T07:06:20;98989.09;;;16.87;100.00
71195;BME280;58908;51.426;7.714;2023-10-13T07:08:46;98977.19;;;16.91;100.00
71195;BME280;58908;51.426;7.714;2023-10-13T07:11:16;98975.91;;;16.94;100.00
71195;BME280;58908;51.426;7.714;2023-10-13T07:13:47;98989.91;;;16.96;100.00
71195;BME280;58908;51.426;7.714;2023-10-13T07:16:16;98988.94;;;16.97;100.00
71195;BME280;58908;51.426;7.714;2023-10-13T07:18:43;98961.16;;;17.00;100.00
71195;BME280;58908;51.426;7.714;2023-10-13T07:21:17;98956.63;;;17.10;100.00
71195;BME280;58908;51.426;7.714;2023-10-13T07:23:50;98964.13;;;17.24;100.00
71195;BME280;58908;51.426;7.714;2023-10-13T07:26:33;98972.53;;;17.29;100.00
71195;BME280;58908;51.426;7.714;2023-10-13T07:28:59;98972.38;;;17.30;100.00
71195;BME280;58908;51.426;7.714;2023-10-13T07:31:26;98967.03;;;17.30;100.00
71195;BME280;58908;51.426;7.714;2023-10-13T07:33:52;98978.69;;;17.39;100.00
71195;BME280;58908;51.426;7.714;2023-10-13T07:36:29;98974.59;;;17.44;100.00
71195;BME280;58908;51.426;7.714;2023-10-13T07:39:05;98975.28;;;17.46;100.00
71195;BME280;58908;51.426;7.714;2023-10-13T07:41:45;98985.88;;;17.56;100.00
71195;BME280;58908;51.426;7.714;2023-10-13T07:44:17;98992.13;;;17.64;100.00
71195;BME280;58908;51.426;7.714;2023-10-13T07:46:45;98984.84;;;17.66;100.00
71195;BME280;58908;51.426;7.714;2023-10-13T07:49:22;98994.91;;;17.72;100.00
71195;BME280;58908;51.426;7.714;2023-10-13T07:51:48;98995.34;;;17.68;100.00
71195;BME280;58908;51.426;7.714;2023-10-13T07:54:17;98984.66;;;17.68;100.00
71195;BME280;58908;51.426;7.714;2023-10-13T07:56:46;98988.81;;;17.80;100.00
71195;BME280;58908;51.426;7.714;2023-10-13T07:59:13;98978.13;;;17.80;100.00
71195;BME280;58908;51.426;7.714;2023-10-13T08:01:41;98980.13;;;17.78;100.00
71195;BME280;58908;51.426;7.714;2023-10-13T08:04:08;98977.53;;;17.86;100.00
71195;BME280;58908;51.426;7.714;2023-10-13T08:06:36;98976.53;;;17.87;100.00
71195;BME280;58908;51.426;7.714;2023-10-13T08:09:02;98988.13;;;17.95;100.00
71195;BME280;58908;51.426;7.714;2023-10-13T08:11:35;98982.66;;;17.97;100.00
71195;BME280;58908;51.426;7.714;2023-10-13T08:14:02;98986.09;;;18.07;100.00
71195;BME280;58908;51.426;7.714;2023-10-13T08:16:36;98988.03;;;18.05;100.00
71195;BME280;58908;51.426;7.714;2023-10-13T08:19:18;98980.78;;;18.15;100.00
71195;BME280;58908;51.426;7.714;2023-10-13T08:21:44;98984.69;;;18.20;100.00
71195;BME280;58908;51.426;7.714;2023-10-13T08:24:16;98978.34;;;18.21;100.00
71195;BME280;58908;51.426;7.714;2023-10-13T08:26:51;98988.75;;;18.24;100.00
71195;BME280;58908;51.426;7.714;2023-10-13T08:29:43;98982.13;;;18.28;100.00
71195;BME280;58908;51.426;7.714;2023-10-13T08:32:28;98982.53;;;18.24;100.00
71195;BME280;58908;51.426;7.714;2023-10-13T08:35:10;98977.13;;;18.16;100.00
71195;BME280;58908;51.426;7.714;2023-10-13T08:37:47;98978.06;;;18.24;100.00
71195;BME280;58908;51.426;7.714;2023-10-13T08:40:22;98966.22;;;18.27;100.00
71195;BME280;58908;51.426;7.714;2023-10-13T08:43:03;98969.00;;;18.35;100.00
71195;BME280;58908;51.426;7.714;2023-10-13T08:45:37;98970.81;;;18.52;100.00
71195;BME280;58908;51.426;7.714;2023-10-13T08:48:19;98982.44;;;18.68;100.00
71195;BME280;58908;51.426;7.714;2023-10-13T08:50:51;98959.63;;;18.82;100.00
71195;BME280;58908;51.426;7.714;2023-10-13T08:53:20;98975.00;;;19.47;100.00
71195;BME280;58908;51.426;7.714;2023-10-13T08:55:57;98965.56;;;19.68;100.00
71195;BME280;58908;51.426;7.714;2023-10-13T08:58:41;98955.22;;;19.97;100.00
71195;BME280;58908;51.426;7.714;2023-10-13T09:01:25;98959.38;;;19.75;100.00
71195;BME280;58908;51.426;7.714;2023-10-13T09:04:02;98961.47;;;19.48;100.00
71195;BME280;58908;51.426;7.714;2023-10-13T09:06:43;98956.38;;;19.78;100.00
71195;BME280;58908;51.426;7.714;2023-10-13T09:09:12;98940.50;;;19.93;100.00
71195;BME280;58908;51.426;7.714;2023-10-13T09:11:51;98933.50;;;20.40;100.00
71195;BME280;58908;51.426;7.714;2023-10-13T09:14:31;98937.88;;;20.33;100.00
71195;BME280;58908;51.426;7.714;2023-10-13T09:17:01;98918.59;;;20.37;100.00
71195;BME280;58908;51.426;7.714;2023-10-13T09:19:43;98920.72;;;20.66;100.00
71195;BME280;58908;51.426;7.714;2023-10-13T09:22:19;98912.53;;;20.67;100.00
71195;BME280;58908;51.426;7.714;2023-10-13T09:24:50;98885.09;;;20.49;100.00
71195;BME280;58908;51.426;7.714;2023-10-13T09:27:16;98890.88;;;20.93;100.00
71195;BME280;58908;51.426;7.714;2023-10-13T09:29:43;98867.81;;;21.75;100.00
71195;BME280;58908;51.426;7.714;2023-10-13T09:32:19;98882.41;;;21.42;100.00
71195;BME280;58908;51.426;7.714;2023-10-13T09:34:46;98865.94;;;20.76;100.00
71195;BME280;58908;51.426;7.714;2023-10-13T09:37:13;98880.16;;;20.85;100.00
71195;BME280;58908;51.426;7.714;2023-10-13T09:39:46;98913.22;;;20.37;100.00
71195;BME280;58908;51.426;7.714;2023-10-13T09:42:16;98901.84;;;19.95;100.00
71195;BME280;58908;51.426;7.714;2023-10-13T09:44:44;98911.41;;;20.06;100.00
71195;BME280;58908;51.426;7.714;2023-10-13T09:47:16;98897.69;;;20.25;100.00
71195;BME280;58908;51.426;7.714;2023-10-13T09:49:49;98894.81;;;20.42;100.00
71195;BME280;58908;51.426;7.714;2023-10-13T09:52:17;98895.47;;;20.44;100.00
71195;BME280;58908;51.426;7.714;2023-10-13T09:54:52;98888.91;;;20.71;100.00
71195;BME280;58908;51.426;7.714;2023-10-13T09:57:24;98892.56;;;20.86;100.00
71195;BME280;58908;51.426;7.714;2023-10-13T09:59:57;98862.22;;;20.77;100.00
71195;BME280;58908;51.426;7.714;2023-10-13T10:02:31;98861.94;;;20.72;100.00
71195;BME280;58908;51.426;7.714;2023-10-13T10:04:57;98820.66;;;20.89;100.00
71195;BME280;58908;51.426;7.714;2023-10-13T10:07:38;98836.84;;;21.04;100.00
71195;BME280;58908;51.426;7.714;2023-10-13T10:10:05;98820.88;;;21.10;100.00
71195;BME280;58908;51.426;7.714;2023-10-13T10:12:35;98829.19;;;21.23;100.00
71195;BME280;58908;51.426;7.714;2023-10-13T10:15:07;98852.59;;;21.07;100.00
71195;BME280;58908;51.426;7.714;2023-10-13T10:17:39;98835.41;;;21.24;100.00
71195;BME280;58908;51.426;7.714;2023-10-13T10:20:06;98823.00;;;21.23;100.00
71195;BME280;58908;51.426;7.714;2023-10-13T10:22:40;98825.28;;;21.34;100.00
71195;BME280;58908;51.426;7.714;2023-10-13T10:25:11;98807.81;;;21.38;100.00
71195;BME280;58908;51.426;7.714;2023-10-13T10:27:54;98819.16;;;21.48;100.00
71195;BME280;58908;51.426;7.714;2023-10-13T10:30:24;98797.44;;;21.35;100.00
71195;BME280;58908;51.426;7.714;2023-10-13T10:32:53;98816.81;;;21.45;100.00
71195;BME280;58908;51.426;7.714;2023-10-13T10:35:24;98816.34;;;21.41;100.00
71195;BME280;58908;51.426;7.714;2023-10-13T10:37:51;98838.25;;;21.22;100.00
71195;BME280;58908;51.426;7.714;2023-10-13T10:40:18;98818.09;;;21.26;100.00
71195;BME280;58908;51.426;7.714;2023-10-13T10:43:11;98819.69;;;21.43;100.00
71195;BME280;58908;51.426;7.714;2023-10-13T10:45:45;98822.44;;;21.58;100.00
71195;BME280;58908;51.426;7.714;2023-10-13T10:48:14;98826.19;;;21.49;100.00
71195;BME280;58908;51.426;7.714;2023-10-13T10:50:43;98820.56;;;21.58;100.00
71195;BME280;58908;51.426;7.714;2023-10-13T10:53:09;98811.09;;;21.48;100.00
71195;BME280;58908;51.426;7.714;2023-10-13T10:55:36;98813.81;;;21.40;100.00
71195;BME280;58908;51.426;7.714;2023-10-13T10:58:03;98807.81;;;21.38;100.00
71195;BME280;58908;51.426;7.714;2023-10-13T11:00:31;98816.59;;;21.54;100.00
71195;BME280;58908;51.426;7.714;2023-10-13T11:03:07;98803.81;;;21.56;100.00
71195;BME280;58908;51.426;7.714;2023-10-13T11:05:42;98783.00;;;21.58;100.00
71195;BME280;58908;51.426;7.714;2023-10-13T11:08:09;98778.91;;;21.48;100.00
71195;BME280;58908;51.426;7.714;2023-10-13T11:10:50;98746.59;;;21.78;100.00
71195;BME280;58908;51.426;7.714;2023-10-13T11:13:16;98774.09;;;21.80;100.00
71195;BME280;58908;51.426;7.714;2023-10-13T11:15:47;98767.72;;;21.81;100.00
71195;BME280;58908;51.426;7.714;2023-10-13T11:18:14;98759.88;;;21.80;100.00
71195;BME280;58908;51.426;7.714;2023-10-13T11:20:46;98751.72;;;22.02;100.00
71195;BME280;58908;51.426;7.714;2023-10-13T11:23:15;98775.75;;;22.04;100.00
71195;BME280;58908;51.426;7.714;2023-10-13T11:25:41;98758.69;;;21.97;100.00
71195;BME280;58908;51.426;7.714;2023-10-13T11:28:10;98735.63;;;22.16;100.00
71195;BME280;58908;51.426;7.714;2023-10-13T11:30:42;98741.66;;;22.18;100.00
71195;BME280;58908;51.426;7.714;2023-10-13T11:33:15;98727.56;;;22.16;100.00
71195;BME280;58908;51.426;7.714;2023-10-13T11:35:46;98706.25;;;22.15;100.00
71195;BME280;58908;51.426;7.714;2023-10-13T11:38:20;98745.53;;;22.02;100.00
71195;BME280;58908;51.426;7.714;2023-10-13T11:40:51;98724.53;;;22.05;100.00
71195;BME280;58908;51.426;7.714;2023-10-13T11:43:32;98729.78;;;22.13;100.00
71195;BME280;58908;51.426;7.714;2023-10-13T11:46:09;98699.84;;;22.30;100.00
71195;BME280;58908;51.426;7.714;2023-10-13T11:48:41;98713.78;;;22.48;100.00
71195;BME280;58908;51.426;7.714;2023-10-13T11:51:08;98700.72;;;22.16;100.00
71195;BME280;58908;51.426;7.714;2023-10-13T11:53:42;98696.25;;;22.52;100.00
71195;BME280;58908;51.426;7.714;2023-10-13T11:56:08;98683.28;;;22.56;100.00
71195;BME280;58908;51.426;7.714;2023-10-13T11:58:34;98708.59;;;22.47;100.00
71195;BME280;58908;51.426;7.714;2023-10-13T12:01:01;98671.63;;;22.34;100.00
71195;BME280;58908;51.426;7.714;2023-10-13T12:03:46;98656.69;;;22.46;100.00
71195;BME280;58908;51.426;7.714;2023-10-13T12:06:31;98679.56;;;22.57;100.00
71195;BME280;58908;51.426;7.714;2023-10-13T12:09:00;98660.31;;;22.39;100.00
71195;BME280;58908;51.426;7.714;2023-10-13T12:11:39;98658.66;;;22.09;100.00
71195;BME280;58908;51.426;7.714;2023-10-13T12:14:06;98670.88;;;21.97;100.00
71195;BME280;58908;51.426;7.714;2023-10-13T12:16:42;98673.28;;;22.07;100.00
71195;BME280;58908;51.426;7.714;2023-10-13T12:19:15;98674.50;;;21.90;100.00
71195;BME280;58908;51.426;7.714;2023-10-13T12:21:41;98678.28;;;21.81;100.00
71195;BME280;58908;51.426;7.714;2023-10-13T12:24:08;98640.50;;;21.97;100.00
71195;BME280;58908;51.426;7.714;2023-10-13T12:26:46;98649.56;;;21.96;100.00
71195;BME280;58908;51.426;7.714;2023-10-13T12:29:12;98646.16;;;21.87;100.00
71195;BME280;58908;51.426;7.714;2023-10-13T12:31:47;98663.81;;;21.67;100.00
71195;BME280;58908;51.426;7.714;2023-10-13T12:34:27;98654.38;;;21.71;100.00
71195;BME280;58908;51.426;7.714;2023-10-13T12:37:11;98653.56;;;21.71;100.00
71195;BME280;58908;51.426;7.714;2023-10-13T12:40:00;98654.78;;;21.60;100.00
71195;BME280;58908;51.426;7.714;2023-10-13T12:42:44;98679.53;;;21.56;100.00
71195;BME280;58908;51.426;7.714;2023-10-13T12:45:28;98666.19;;;21.48;100.00
71195;BME280;58908;51.426;7.714;2023-10-13T12:48:14;98678.41;;;21.50;100.00
71195;BME280;58908;51.426;7.714;2023-10-13T12:51:01;98664.31;;;21.48;100.00
71195;BME280;58908;51.426;7.714;2023-10-13T12:53:44;98660.13;;;21.68;100.00
71195;BME280;58908;51.426;7.714;2023-10-13T12:56:11;98656.41;;;21.69;100.00
71195;BME280;58908;51.426;7.714;2023-10-13T12:58:37;98658.31;;;21.61;100.00
71195;BME280;58908;51.426;7.714;2023-10-13T13:01:03;98642.19;;;21.69;100.00
71195;BME280;58908;51.426;7.714;2023-10-13T13:03:31;98628.69;;;21.54;100.00
71195;BME280;58908;51.426;7.714;2023-10-13T13:05:57;98618.91;;;21.61;100.00
71195;BME280;58908;51.426;7.714;2023-10-13T13:08:25;98632.56;;;21.74;100.00
71195;BME280;58908;51.426;7.714;2023-10-13T13:10:52;98638.94;;;21.73;100.00
71195;BME280;58908;51.426;7.714;2023-10-13T13:13:18;98643.56;;;21.79;100.00
71195;BME280;58908;51.426;7.714;2023-10-13T13:15:49;98621.91;;;21.95;100.00
71195;BME280;58908;51.426;7.714;2023-10-13T13:18:15;98637.91;;;22.03;100.00
71195;BME280;58908;51.426;7.714;2023-10-13T13:20:42;98648.72;;;22.09;100.00